Stations météo

réclame
Mon MeteoGroup
Langdon Bay, Grande-Bretagne (3796): Température de l'air & dewpoint: 04.12.2018 22:00:00 - 10.12.2018 22:00:00 (GMT)Langdon Bay, Grande-Bretagne (3796): Vitesse du vent & gusts: 04.12.2018 22:00:00 - 10.12.2018 22:00:00 (GMT)Langdon Bay, Grande-Bretagne (3796): Direction du vent: 04.12.2018 22:00:00 - 10.12.2018 22:00:00 (GMT)Langdon Bay, Grande-Bretagne (3796): reduced air pressure: 04.12.2018 22:00:00 - 10.12.2018 22:00:00 (GMT)
Date & Time tt [°C] td [°C] ff [km/h] ff [knt] fx [km/h] fx [knt] dd ppp [hPa]
10.12.2018 22:00:00 5,0 3,9 8 4 - - NW 1027,7
10.12.2018 21:00:00 5,7 4,4 11 6 - - NW 1027,4
10.12.2018 20:00:00 6,0 4,5 18 10 - - NW 1027,4
10.12.2018 19:00:00 6,4 4,4 16 9 - - NW 1027,2
10.12.2018 18:00:00 6,9 4,7 15 8 - - NW 1027,4
10.12.2018 17:00:00 7,0 4,9 11 6 - - NW 1027,3
10.12.2018 16:00:00 7,3 4,9 15 8 - - NW 1027,2
10.12.2018 15:00:00 7,7 4,8 21 11 - - NW 1026,7
10.12.2018 14:00:00 7,8 4,9 26 14 - - NW 1026,3
10.12.2018 13:00:00 8,0 4,8 21 11 - - NW 1026,5
10.12.2018 12:00:00 8,3 5,5 24 13 - - NW 1026,6
10.12.2018 11:00:00 7,5 4,7 26 14 - - WNW 1026,6
10.12.2018 10:00:00 7,1 4,8 16 9 - - WNW 1026,4
10.12.2018 09:00:00 6,8 4,8 15 8 - - WNW 1026,0
10.12.2018 08:00:00 5,8 4,2 13 7 - - WNW 1025,5
10.12.2018 07:00:00 5,8 4,1 16 9 - - WNW 1025,0
10.12.2018 06:00:00 5,7 4,1 18 10 - - WNW 1024,4
10.12.2018 05:00:00 5,6 4,1 16 9 - - WNW 1023,9
10.12.2018 04:00:00 5,6 4,0 16 9 - - W 1023,7
10.12.2018 03:00:00 5,0 4,0 15 8 - - W 1023,4
10.12.2018 02:00:00 5,2 3,7 15 8 - - W 1023,1
10.12.2018 01:00:00 5,0 3,7 13 7 - - W 1022,4
10.12.2018 00:00:00 6,1 3,6 15 8 - - WNW 1022,0
09.12.2018 23:00:00 6,6 3,8 15 8 - - WNW 1021,3
09.12.2018 22:00:00 6,8 3,5 18 10 - - WNW 1020,3
09.12.2018 21:00:00 7,1 3,8 21 11 - - WNW 1019,6
09.12.2018 20:00:00 7,6 3,8 22 12 - - WNW 1019,0
09.12.2018 19:00:00 7,0 3,0 22 12 - - WNW 1017,9
09.12.2018 18:00:00 7,7 4,2 13 7 - - WNW 1016,7
09.12.2018 17:00:00 7,9 4,1 24 13 - - WNW 1015,4
09.12.2018 16:00:00 8,0 4,0 16 9 - - WNW 1013,9
09.12.2018 15:00:00 9,3 4,3 24 13 - - NW 1011,9
09.12.2018 14:00:00 8,8 4,7 31 17 52 28 NW 1010,2
09.12.2018 13:00:00 9,2 6,8 29 16 50 27 NW 1008,3
09.12.2018 12:00:00 8,5 6,9 29 16 57 31 WNW 1007,1
09.12.2018 11:00:00 9,9 6,6 28 15 - - WNW 1005,6
09.12.2018 10:00:00 8,7 7,1 24 13 48 26 WNW 1004,1
09.12.2018 09:00:00 8,9 6,3 29 16 50 27 W 1002,6
09.12.2018 08:00:00 8,4 6,0 29 16 54 29 W 1001,5
09.12.2018 07:00:00 8,6 5,0 28 15 57 31 W 1000,4
09.12.2018 06:00:00 8,7 5,0 34 18 59 32 W 1000,2
09.12.2018 05:00:00 8,1 4,7 37 20 59 32 W 1000,0
09.12.2018 04:00:00 7,8 4,6 34 18 55 30 W 1000,1
09.12.2018 03:00:00 7,8 4,4 37 20 57 31 W 999,9
09.12.2018 02:00:00 8,0 4,4 35 19 61 33 W 999,4
09.12.2018 01:00:00 8,2 4,8 35 19 63 34 W 999,0
09.12.2018 00:00:00 8,0 5,2 34 18 63 34 W 998,9
08.12.2018 23:00:00 8,7 5,4 39 21 61 33 W 998,4
08.12.2018 22:00:00 8,7 5,1 34 18 61 33 W 998,5
08.12.2018 21:00:00 9,0 5,7 29 16 52 28 W 998,5
08.12.2018 20:00:00 9,7 6,6 34 18 55 30 WSW 998,4
08.12.2018 19:00:00 9,7 7,5 34 18 57 31 WSW 998,0
08.12.2018 18:00:00 10,2 9,1 29 16 59 32 WSW 998,2
08.12.2018 17:00:00 10,9 10,6 37 20 68 37 WSW 999,0
08.12.2018 16:00:00 10,7 10,6 46 25 70 38 WSW 999,8
08.12.2018 15:00:00 10,6 10,1 37 20 55 30 WSW 1001,6
08.12.2018 14:00:00 10,3 8,6 41 22 63 34 WSW 1003,4
08.12.2018 13:00:00 10,2 6,3 34 18 68 37 WSW 1004,9
08.12.2018 12:00:00 10,5 5,1 41 22 63 34 WSW 1005,4
08.12.2018 11:00:00 9,4 5,3 29 16 48 26 WSW 1006,2
08.12.2018 10:00:00 9,1 5,3 29 16 50 27 WSW 1006,5
08.12.2018 09:00:00 8,3 4,9 28 15 46 25 WSW 1006,1
08.12.2018 08:00:00 7,9 4,5 31 17 52 28 WSW 1005,8
08.12.2018 07:00:00 7,8 4,3 29 16 52 28 WSW 1005,3
08.12.2018 06:00:00 7,6 4,1 31 17 74 40 WSW 1004,8
08.12.2018 05:00:00 7,5 4,0 31 17 52 28 WSW 1004,7
08.12.2018 04:00:00 7,5 4,2 31 17 50 27 WSW 1004,9
08.12.2018 03:00:00 7,4 4,2 29 16 52 28 WSW 1005,0
08.12.2018 02:00:00 7,6 4,2 34 18 59 32 WSW 1005,4
08.12.2018 01:00:00 7,3 3,9 34 18 61 33 WSW 1005,4
08.12.2018 00:00:00 6,7 3,6 35 19 65 35 WSW 1005,8
07.12.2018 23:00:00 5,9 3,0 29 16 46 25 WSW 1005,9
07.12.2018 22:00:00 5,9 2,7 29 16 50 27 W 1006,1
07.12.2018 21:00:00 5,7 2,6 28 15 48 26 W 1005,7
07.12.2018 20:00:00 5,8 2,7 26 14 - - WSW 1005,7
07.12.2018 19:00:00 6,0 2,8 24 13 - - WSW 1005,2
07.12.2018 18:00:00 6,4 3,3 28 15 - - W 1004,2
07.12.2018 17:00:00 6,8 3,6 26 14 - - W 1003,0
07.12.2018 16:00:00 7,5 4,7 24 13 - - W 1001,9
07.12.2018 15:00:00 7,4 5,8 16 9 59 32 W 1001,0
07.12.2018 14:00:00 8,8 7,8 24 13 54 29 W 1000,0
07.12.2018 13:00:00 9,0 8,0 31 17 70 38 W 998,9
07.12.2018 12:00:00 11,1 11,0 39 21 76 41 SW 998,0
07.12.2018 11:00:00 11,1 10,9 46 25 76 41 SSW 999,6
07.12.2018 10:00:00 11,1 10,7 46 25 76 41 SW 1001,3
07.12.2018 09:00:00 11,6 11,0 42 23 70 38 SW 1002,9
07.12.2018 08:00:00 11,7 11,3 39 21 67 36 SW 1004,1
07.12.2018 07:00:00 11,3 11,3 35 19 61 33 SW 1005,4
07.12.2018 06:00:00 11,3 11,3 31 17 55 30 SW 1006,8
07.12.2018 05:00:00 11,4 11,4 29 16 54 29 SW 1008,0
07.12.2018 04:00:00 11,5 11,5 28 15 54 29 SW 1009,2
07.12.2018 03:00:00 11,7 11,7 24 13 55 30 SW 1010,3
07.12.2018 02:00:00 11,6 11,6 29 16 52 28 WSW 1011,1
07.12.2018 01:00:00 11,7 11,6 28 15 61 33 WSW 1011,9
07.12.2018 00:00:00 11,7 11,7 39 21 55 30 WSW 1012,8
06.12.2018 23:00:00 11,7 11,7 34 18 63 34 WSW 1013,2
06.12.2018 22:00:00 11,7 11,7 41 22 59 32 WSW 1013,8
06.12.2018 21:00:00 11,5 11,5 37 20 65 35 WSW 1014,5
06.12.2018 20:00:00 11,5 11,5 41 22 61 33 WSW 1014,5
06.12.2018 19:00:00 11,4 11,2 31 17 54 29 WSW 1014,9
06.12.2018 18:00:00 11,5 11,0 29 16 54 29 WSW 1014,8
06.12.2018 17:00:00 11,3 10,6 41 22 55 30 WSW 1014,9
06.12.2018 16:00:00 11,1 10,7 29 16 46 25 WSW 1014,6
06.12.2018 15:00:00 11,2 11,0 34 18 50 27 WSW 1014,9
06.12.2018 14:00:00 11,3 11,0 31 17 46 25 WSW 1014,8
06.12.2018 13:00:00 11,2 11,0 22 12 - - WSW 1015,2
06.12.2018 12:00:00 11,3 10,8 31 17 - - WSW 1015,6
06.12.2018 11:00:00 11,2 10,6 24 13 - - WSW 1016,1
06.12.2018 10:00:00 10,9 10,4 22 12 - - WSW 1015,8
06.12.2018 09:00:00 10,4 10,0 21 11 - - WSW 1015,7
06.12.2018 08:00:00 9,9 9,7 16 9 - - WSW 1015,4
06.12.2018 07:00:00 9,5 9,5 18 10 - - W 1015,0
06.12.2018 06:00:00 9,4 9,3 16 9 - - WSW 1014,7
06.12.2018 05:00:00 9,5 9,2 11 6 - - WSW 1014,4
06.12.2018 04:00:00 10,4 9,6 13 7 - - WSW 1014,0
06.12.2018 03:00:00 11,1 10,1 16 9 - - W 1013,4
06.12.2018 02:00:00 11,1 10,7 13 7 - - W 1012,1
06.12.2018 01:00:00 11,4 11,4 18 10 - - W 1011,8
06.12.2018 00:00:00 11,6 11,6 13 7 - - W 1011,3
05.12.2018 23:00:00 11,6 11,6 21 11 - - WSW 1010,8
05.12.2018 22:00:00 11,6 11,6 24 13 - - WSW 1010,8
05.12.2018 21:00:00 11,6 11,6 22 12 - - WSW 1010,8
05.12.2018 20:00:00 11,5 11,5 24 13 - - SW 1010,8
05.12.2018 19:00:00 11,3 11,2 31 17 54 29 SSW 1010,8
05.12.2018 18:00:00 11,4 11,1 31 17 59 32 SSW 1011,1
05.12.2018 17:00:00 11,4 10,9 35 19 54 29 S 1011,1
05.12.2018 16:00:00 11,4 10,8 31 17 52 28 SSW 1012,0
05.12.2018 15:00:00 11,3 10,8 34 18 55 30 S 1012,4
05.12.2018 14:00:00 10,9 10,7 35 19 52 28 S 1013,5
05.12.2018 13:00:00 10,6 10,6 28 15 46 25 S 1014,6
05.12.2018 12:00:00 10,9 10,9 31 17 50 27 S 1015,9
05.12.2018 11:00:00 10,5 10,5 28 15 46 25 S 1017,0
05.12.2018 10:00:00 10,0 10,0 24 13 - - S 1017,6
05.12.2018 09:00:00 9,4 9,4 24 13 - - S 1018,0
05.12.2018 08:00:00 9,3 9,3 24 13 - - S 1018,4
05.12.2018 07:00:00 8,7 8,7 26 14 - - S 1018,7
05.12.2018 06:00:00 7,7 7,6 29 16 - - SSE 1019,4
05.12.2018 05:00:00 6,8 6,7 24 13 46 25 ESE 1020,5
05.12.2018 04:00:00 6,4 6,1 29 16 - - ESE 1021,3
05.12.2018 03:00:00 6,8 5,1 29 16 - - ESE 1021,9
05.12.2018 02:00:00 7,1 4,6 22 12 - - S 1022,3
05.12.2018 01:00:00 8,8 3,4 16 9 - - S 1022,7
05.12.2018 00:00:00 8,5 4,5 18 10 - - S 1023,1
04.12.2018 23:00:00 8,7 4,8 15 8 - - S 1023,8
04.12.2018 22:00:00 8,5 1,9 16 9 - - SSW 1023,8

tt = Température de l'air
td = dewpoint
ff = Vitesse du vent
fx = gusts
dd = Direction du vent
ppp = reduced air pressure

stations d'obs. à proximité